Flight Track Log - Related Links

Times and Time Zones

All times are in EDT time to prevent confusion due to time zone crossing. See the N350BB flight status page for this flight to view local times or setup timezone preferences in your user account.

Time Position Orientation Groundspeed Altitude Reporting Facility
EDT Latitude Longitude Course Direction KTS MPH feet Rate Location/Type
Sat 05:38:51 PM 45.0194 -99.7408 109° East 230 265 9,500  Level Minneapolis Center
Sat 05:39:52 PM 44.9997 -99.6578 109° East 228 262 12,000 2,293 Climbing Minneapolis Center
Sat 05:40:54 PM 44.9789 -99.5733 109° East 227 261 14,200 2,146 Climbing Minneapolis Center
Sat 05:41:55 PM 44.9581 -99.4858 109° East 232 267 16,400 1,918 Climbing Minneapolis Center
Sat 05:42:56 PM 44.9369 -99.3986 109° East 234 269 18,100 1,805 Climbing Minneapolis Center
Sat 05:43:00 PM 44.8289 -99.3029 108° East  Level FlightAware Approximate
Sat 05:43:58 PM 44.9156 -99.3106 109° East 237 273 20,100  Level Minneapolis Center
Sat 05:44:59 PM 44.8944 -99.2231 109° East 236 272 21,800 1,721 Climbing Minneapolis Center
Sat 05:46:00 PM 44.8731 -99.1342 109° East 238 274 23,600 1,512 Climbing Minneapolis Center
Sat 05:47:02 PM 44.8525 -99.0444 108° East 239 275 24,900 1,463 Climbing Minneapolis Center
Sat 05:48:03 PM 44.8292 -98.9531 110° East 246 283 26,600 1,574 Climbing Minneapolis Center
Sat 05:49:04 PM 44.8028 -98.8469 109° East 241 277 28,100 1,171 Climbing Minneapolis Center
Sat 05:50:06 PM 44.7800 -98.7556 109° East 245 282 29,000 439 Climbing Minneapolis Center
Sat 05:51:07 PM 44.7536 -98.6506 109° East 272 313 29,000  Level Minneapolis Center
Sat 05:52:09 PM 44.7236 -98.5333 110° East 307 353 29,000  Level Minneapolis Center
Sat 05:53:10 PM 44.6925 -98.4128 110° East 322 371 29,000  Level Minneapolis Center
Sat 05:54:11 PM 44.6625 -98.2869 108° East 330 380 29,000  Level Minneapolis Center
Sat 05:55:12 PM 44.6308 -98.1631 110° East 336 387 29,000  Level Minneapolis Center
Sat 05:56:14 PM 44.5989 -98.0422 110° East 332 382 29,000  Level Minneapolis Center
Sat 05:57:15 PM 44.5675 -97.9189 110° East 335 386 29,000  Level Minneapolis Center
Sat 05:58:16 PM 44.5347 -97.7942 110° East 341 392 29,000  Level Minneapolis Center
Sat 05:59:18 PM 44.4958 -97.6461 110° East 339 390 29,000  Level Minneapolis Center
Sat 06:00:19 PM 44.4636 -97.5233 110° East 338 389 29,000  Level Minneapolis Center
Sat 06:01:21 PM 44.4308 -97.4003 110° East 337 388 29,000  Level Minneapolis Center
Sat 06:02:22 PM 44.3992 -97.2769 110° East 338 389 29,000  Level Minneapolis Center
Sat 06:03:23 PM 44.3653 -97.1519 111° Southeast 343 395 29,000  Level Minneapolis Center
Sat 06:04:25 PM 44.3328 -97.0306 110° East 338 389 29,000  Level Minneapolis Center
Sat 06:05:26 PM 44.2989 -96.9064 111° Southeast 341 392 29,000  Level Minneapolis Center
Sat 06:06:28 PM 44.2658 -96.7839 111° Southeast 340 391 29,000  Level Minneapolis Center
Sat 06:07:29 PM 44.2319 -96.6611 111° Southeast 340 391 29,000  Level Minneapolis Center
Sat 06:08:30 PM 44.1925 -96.5153 111° Southeast 338 389 29,000  Level Minneapolis Center
Sat 06:09:31 PM 44.1592 -96.3939 111° Southeast 339 390 29,000  Level Minneapolis Center
Sat 06:10:33 PM 44.1261 -96.2758 111° Southeast 337 388 29,000  Level Minneapolis Center
Sat 06:11:34 PM 44.0931 -96.1569 111° Southeast 339 390 29,000  Level Minneapolis Center
Sat 06:12:35 PM 44.0594 -96.0364 111° Southeast 340 391 29,000  Level Minneapolis Center
Sat 06:13:37 PM 44.0194 -95.8922 111° Southeast 337 388 29,000  Level Minneapolis Center
Sat 06:14:38 PM 43.9856 -95.7708 111° Southeast 340 391 29,000  Level Minneapolis Center
Sat 06:15:39 PM 43.9508 -95.6506 112° Southeast 337 388 29,000  Level Minneapolis Center
Sat 06:16:41 PM 43.9167 -95.5297 111° Southeast 338 389 29,000  Level Minneapolis Center
Sat 06:17:42 PM 43.8819 -95.4097 112° Southeast 337 388 29,000  Level Minneapolis Center
Sat 06:18:43 PM 43.8472 -95.2867 111° Southeast 343 395 29,000  Level Minneapolis Center
Sat 06:19:45 PM 43.8125 -95.1672 112° Southeast 339 390 29,000  Level Minneapolis Center
Sat 06:20:46 PM 43.7778 -95.0483 112° Southeast 335 386 29,000  Level Minneapolis Center
Sat 06:21:47 PM 43.7425 -94.9253 112° Southeast 344 396 29,000  Level Minneapolis Center
Sat 06:22:49 PM 43.7006 -94.7808 112° Southeast 340 391 29,000  Level Minneapolis Center
Sat 06:23:50 PM 43.6642 -94.6592 112° Southeast 343 395 29,000  Level Minneapolis Center
Sat 06:24:51 PM 43.6286 -94.5389 112° Southeast 340 391 29,000  Level Minneapolis Center
Sat 06:25:53 PM 43.5922 -94.4197 113° Southeast 339 390 29,000  Level Minneapolis Center
Sat 06:26:54 PM 43.5572 -94.2994 112° Southeast 339 390 29,000  Level Minneapolis Center
Sat 06:27:56 PM 43.5236 -94.1889 113° Southeast 341 392 29,000  Level Minneapolis Center
Sat 06:28:57 PM 43.4800 -94.0458 113° Southeast 341 392 29,000  Level Minneapolis Center
Sat 06:29:58 PM 43.4447 -93.9267 112° Southeast 340 391 29,000  Level Minneapolis Center
Sat 06:31:00 PM 43.4086 -93.8081 113° Southeast 339 390 29,000  Level Minneapolis Center
Sat 06:32:01 PM 43.3731 -93.6906 113° Southeast 337 388 29,000  Level Minneapolis Center
Sat 06:33:03 PM 43.3367 -93.5739 113° Southeast 335 386 29,000  Level Minneapolis Center
Sat 06:34:04 PM 43.3006 -93.4561 113° Southeast 337 388 29,000  Level Minneapolis Center
Sat 06:35:06 PM 43.2556 -93.3150 114° Southeast 338 389 29,000  Level Minneapolis Center
Sat 06:36:08 PM 43.2189 -93.1956 113° Southeast 341 392 29,000  Level Minneapolis Center
Sat 06:37:09 PM 43.1811 -93.0750 113° Southeast 347 399 29,000  Level Minneapolis Center
Sat 06:38:11 PM 43.1436 -92.9561 113° Southeast 344 396 29,000  Level Minneapolis Center
Sat 06:39:13 PM 43.1061 -92.8386 114° Southeast 341 392 29,000  Level Minneapolis Center
Sat 06:40:15 PM 43.0686 -92.7211 114° Southeast 340 391 29,000  Level Minneapolis Center
Sat 06:41:16 PM 43.0231 -92.5797 114° Southeast 341 392 29,000  Level Minneapolis Center
Sat 06:41:54 PM 42.9986 -92.5083 115° Southeast 342 394 29,000  Level Chicago Center
Sat 06:42:56 PM 42.9606 -92.3900 114° Southeast 343 395 29,000  Level Chicago Center
Sat 06:43:57 PM 42.9217 -92.2717 114° Southeast 344 396 29,000  Level Chicago Center
Sat 06:44:59 PM 42.8850 -92.1542 113° Southeast 343 395 29,000  Level Chicago Center
Sat 06:46:00 PM 42.8467 -92.0369 114° Southeast 343 395 29,000  Level Chicago Center
Sat 06:47:02 PM 42.8006 -91.8964 114° Southeast 343 395 29,000  Level Chicago Center
Sat 06:48:04 PM 42.7633 -91.7794 113° Southeast 342 394 29,000  Level Chicago Center
Sat 06:49:05 PM 42.7206 -91.6550 115° Southeast 339 390 29,000  Level Chicago Center
Sat 06:50:07 PM 42.6961 -91.5533 108° East 344 396 29,000 -98 Level Chicago Center
Sat 06:51:08 PM 42.6700 -91.4111 104° East 328 377 28,800 -683 Descending Chicago Center
Sat 06:52:10 PM 42.6464 -91.2842 104° East 343 395 27,600 -1,161 Descending Chicago Center
Sat 06:53:12 PM 42.6189 -91.1492 105° East 370 426 26,400 -1,220 Descending Chicago Center
Sat 06:54:13 PM 42.5939 -91.0164 104° East 369 425 25,100 -1,220 Descending Chicago Center
Sat 06:55:15 PM 42.5697 -90.8828 104° East 368 423 23,900 -1,220 Descending Chicago Center
Sat 06:56:16 PM 42.5422 -90.7514 106° East 367 422 22,600 -1,415 Descending Chicago Center
Sat 06:57:18 PM 42.5117 -90.5939 105° East 363 418 21,000 -1,415 Descending Chicago Center
Sat 06:58:19 PM 42.4856 -90.4628 105° East 364 419 19,700 -1,268 Descending Chicago Center
Sat 06:59:21 PM 42.4592 -90.3317 105° East 364 419 18,400 -1,220 Descending Chicago Center
Sat 07:00:22 PM 42.4336 -90.2008 105° East 363 418 17,200 -1,220 Descending Chicago Center
Sat 07:01:24 PM 42.4067 -90.0697 106° East 364 419 15,900 -1,268 Descending Chicago Center
Sat 07:02:25 PM 42.3814 -89.9419 105° East 357 411 14,600 -1,279 Descending Chicago Center
Sat 07:03:26 PM 42.3536 -89.8144 106° East 343 395 13,300 -1,415 Descending Chicago Center
Sat 07:04:28 PM 42.3258 -89.6733 105° East 328 377 11,700 -1,415 Descending Chicago Center
Sat 07:05:29 PM 42.3003 -89.5569 106° East 324 373 10,400 -829 Descending Chicago Center
Sat 07:06:31 PM 42.2778 -89.4450 105° East 312 359 10,000 -195 Descending Chicago Center
Sat 07:07:32 PM 42.2567 -89.3433 106° East 287 330 10,000  Level Chicago Center
Sat 07:08:34 PM 42.2347 -89.2425 106° East 282 325 10,000 -537 Level Chicago Center
Sat 07:09:35 PM 42.1914 -89.1544 124° Southeast 301 346 8,900 -1,171 Descending Chicago Center
Sat 07:10:37 PM 42.1325 -89.0744 135° Southeast 300 345 7,600 -1,268 Descending Chicago Center
Sat 07:11:38 PM 42.0756 -89.0017 136° Southeast 288 331 6,300 -1,230 Descending Chicago Center
Sat 07:12:39 PM 42.0192 -88.9256 135° Southeast 282 325 5,100 -634 Descending Chicago Center
Sat 07:13:41 PM 41.9689 -88.8231 123° Southeast 279 321 5,000 -49 Descending Chicago Center
Sat 07:14:42 PM 41.9258 -88.7367 124° Southeast 278 320 5,000  Level Chicago Center
Sat 07:15:44 PM 41.8836 -88.6503 123° Southeast 279 321 5,000 -146 Level Chicago Center
Sat 07:16:45 PM 41.8406 -88.5642 124° Southeast 279 321 4,700 -488 Descending Chicago Center
Sat 07:17:47 PM 41.7983 -88.4800 124° Southeast 277 319 4,000 -341 Descending Chicago Center
Sat 07:18:48 PM 41.7569 -88.3969 124° Southeast 273 314 4,000 -98 Level Chicago Center
Sat 07:19:49 PM 41.7158 -88.3136 123° Southeast 270 311 3,800 -98 Descending Chicago Center
Sat 07:20:51 PM 41.6767 -88.2322 123° Southeast 270 311 3,800  Level Chicago Center

Login

Don't have an account? Register now (free) for customized features, flight alerts, and more!